KBKL

Burke Lakefront Airport

Cleveland, Ohio, USA
METAR KBKL 191553Z 06009KT 10SM OVC048 M02/M06 A3002 RMK AO2 SLP172 T10171056
Observed Flight Rules
Jan-19 @ 15:53 UTC (56 minutes ago) Visual Flight Rules
Wind Visibility Clouds
60° at 9 knots 10 miles
  • Overcast at 4,800' AGL
Temperatures Readings
Current -2°C / 28°F
Dewpoint -6°C / 21°F
Humidity 74%
Altimeter 30.02" Hg
Pressure 1017.2 hPa
Elevation 184
METAR KBKL 191553Z 06009KT 10SM OVC048 M02/M06 A3002 RMK AO2 SLP172 T10171056
Observed Flight Rules
Jan-19 @ 15:53 UTC
(56 minutes ago)
VFR
Wind Visibility
60° at 9 knots 10 miles
Clouds
  • Overcast at 4,800' AGL
Temperature Dewpoint
-2°C / 28°F -6°C / 21°F
Humidity Altimeter Pressure
74% 30.02" Hg 1017.2 hPa